Time;durP1;ratioP1;P1;durP2;ratioP2;P2;SDS_P1;SDS_P2;PMS_P1;PMS_P2;Temp;Humidity;BMP_temperature;BMP_pressure;BME280_temperature;BME280_humidity;BME280_pressure;Samples;Min_cycle;Max_cycle;Signal;HPM_P1;HPM_P2
2022/01/03 00:02:20;;;;;;;53.08;22.30;;;;;;;8.05;90.33;100584.34;5067960;28;20028;-22
2022/01/03 00:04:46;;;;;;;66.45;23.75;;;;;;;7.99;92.33;100590.41;5050251;28;20036;-22
2022/01/03 00:07:11;;;;;;;56.35;21.70;;;;;;;7.86;93.28;100588.41;5050019;28;20036;-22
2022/01/03 00:09:37;;;;;;;62.83;24.00;;;;;;;7.72;93.88;100583.97;5067650;28;20028;-21
2022/01/03 00:12:03;;;;;;;76.88;23.38;;;;;;;7.70;95.03;100580.69;5068084;28;20511;-22
2022/01/03 00:14:29;;;;;;;66.25;26.17;;;;;;;7.82;94.14;100579.19;5050523;28;20038;-22
2022/01/03 00:16:54;;;;;;;67.55;24.05;;;;;;;7.60;95.31;100587.13;5067969;28;20039;-21
2022/01/03 00:19:19;;;;;;;60.03;23.52;;;;;;;7.42;96.26;100584.06;5050013;28;20028;-22
2022/01/03 00:21:45;;;;;;;42.65;19.50;;;;;;;6.91;97.06;100587.44;5067560;28;20032;-22
2022/01/03 00:24:11;;;;;;;51.35;20.48;;;;;;;6.59;98.29;100572.69;5067872;28;20032;-22
2022/01/03 00:26:37;;;;;;;56.92;21.38;;;;;;;6.67;99.09;100580.56;5067781;28;20032;-22
2022/01/03 00:29:09;;;;;;;53.53;20.58;;;;;;;6.64;97.73;100557.09;5067405;28;20040;-22
2022/01/03 00:31:39;;;;;;;61.03;22.58;;;;;;;6.69;96.58;100536.16;5067828;28;20054;-22
2022/01/03 00:34:06;;;;;;;74.63;23.30;;;;;;;6.74;97.13;100557.66;5067780;28;20079;-23
2022/01/03 00:36:31;;;;;;;48.63;20.60;;;;;;;6.82;96.64;100546.97;5067768;28;20128;-22
2022/01/03 00:38:57;;;;;;;61.22;20.58;;;;;;;6.83;96.28;100548.59;5067650;28;20136;-21
2022/01/03 00:41:23;;;;;;;61.95;20.58;;;;;;;6.61;96.61;100515.03;5067317;28;20415;-24
2022/01/03 00:43:51;;;;;;;47.58;19.65;;;;;;;6.34;96.89;100511.97;5067636;28;20024;-22
2022/01/03 00:46:17;;;;;;;42.38;17.77;;;;;;;6.36;98.90;100525.06;5049594;28;20032;-21
2022/01/03 00:48:43;;;;;;;42.90;17.90;;;;;;;6.20;99.60;100515.44;5049501;28;20056;-21
2022/01/03 00:51:08;;;;;;;50.05;19.52;;;;;;;6.26;99.07;100514.72;5071907;28;20433;-22
2022/01/03 00:53:33;;;;;;;62.08;21.33;;;;;;;6.38;98.83;100512.47;5074095;28;20029;-21
2022/01/03 00:56:09;;;;;;;58.30;20.65;;;;;;;6.67;97.20;100522.25;5074207;28;20548;-22
2022/01/03 00:58:49;;;;;;;52.22;20.05;;;;;;;6.70;96.46;100513.97;5056020;28;20115;-22
2022/01/03 01:01:14;;;;;;;66.07;21.65;;;;;;;6.98;96.06;100519.41;5056637;28;20040;-22
2022/01/03 01:03:40;;;;;;;47.90;20.90;;;;;;;7.24;93.36;100518.94;5073966;28;20086;-22
2022/01/03 01:06:06;;;;;;;58.55;18.83;;;;;;;7.67;92.24;100517.38;5056140;28;20090;-22
2022/01/03 01:08:33;;;;;;;67.10;18.50;;;;;;;7.82;90.18;100499.53;5073940;28;20032;-22
2022/01/03 01:10:59;;;;;;;62.88;18.95;;;;;;;8.10;88.14;100517.34;5074634;28;20036;-21
2022/01/03 01:13:24;;;;;;;48.50;17.83;;;;;;;7.93;88.56;100519.47;5055444;28;20032;-21
2022/01/03 01:15:50;;;;;;;55.05;20.55;;;;;;;7.70;89.30;100485.13;5056229;28;20055;-21
2022/01/03 01:18:16;;;;;;;51.78;22.35;;;;;;;8.14;88.02;100515.97;5073782;28;20484;-22
2022/01/03 01:20:41;;;;;;;55.47;23.42;;;;;;;7.87;89.27;100513.06;5073745;28;20041;-22
2022/01/03 01:23:07;;;;;;;55.05;24.88;;;;;;;8.19;88.49;100505.56;5056127;28;20473;-21
2022/01/03 01:28:07;;;;;;;56.58;22.45;;;;;;;8.07;87.62;100493.81;5056063;28;20484;-22
2022/01/03 01:30:33;;;;;;;61.60;23.52;;;;;;;7.88;89.12;100482.03;5055782;28;20053;-21
2022/01/03 01:33:15;;;;;;;71.82;27.00;;;;;;;8.08;88.08;100492.81;5073710;28;20028;-22
2022/01/03 01:35:41;;;;;;;63.83;27.55;;;;;;;7.67;89.97;100482.84;5073789;28;20036;-22
2022/01/03 01:38:06;;;;;;;64.60;26.15;;;;;;;7.51;91.20;100474.13;5073873;28;20063;-22
2022/01/03 01:40:34;;;;;;;71.70;26.70;;;;;;;7.13;91.84;100434.53;5039644;28;20044;-22
2022/01/03 01:42:59;;;;;;;56.75;23.77;;;;;;;7.13;92.42;100447.81;5055640;28;20024;-21
2022/01/03 01:45:26;;;;;;;68.32;21.98;;;;;;;7.63;91.18;100451.38;5055432;28;20040;-21
2022/01/03 01:47:51;;;;;;;50.53;20.02;;;;;;;7.65;90.28;100438.72;5073793;28;20032;-21
2022/01/03 01:50:16;;;;;;;54.90;21.75;;;;;;;7.34;91.35;100423.13;5038944;28;20137;-21
2022/01/03 01:52:43;;;;;;;48.15;19.10;;;;;;;7.19;92.85;100425.84;5073425;28;20036;-21
2022/01/03 01:55:11;;;;;;;61.50;20.83;;;;;;;7.10;93.02;100399.59;5073734;28;20064;-22
2022/01/03 01:57:58;;;;;;;67.35;21.73;;;;;;;7.71;91.47;100428.38;5073161;28;20032;-22
2022/01/03 02:00:24;;;;;;;75.50;22.13;;;;;;;8.12;88.63;100430.31;5073510;28;20095;-22
2022/01/03 02:03:10;;;;;;;80.40;25.40;;;;;;;8.25;87.00;100412.66;5052479;28;20469;-21
2022/01/03 02:05:43;;;;;;;81.43;23.30;;;;;;;8.25;86.82;100393.19;5054447;28;20097;-21
2022/01/03 02:08:17;;;;;;;72.03;24.67;;;;;;;8.29;86.33;100404.25;5070339;28;20025;-21
2022/01/03 02:10:52;;;;;;;79.45;22.83;;;;;;;7.77;89.04;100401.06;5052186;28;20103;-22
2022/01/03 02:13:22;;;;;;;61.55;22.15;;;;;;;7.65;90.02;100408.72;5052266;28;20500;-22
2022/01/03 02:16:03;;;;;;;65.15;20.92;;;;;;;7.43;91.42;100407.91;5069921;28;20043;-22
2022/01/03 02:18:29;;;;;;;65.93;21.08;;;;;;;8.04;90.23;100410.84;5069912;28;20040;-21
2022/01/03 02:20:55;;;;;;;71.40;23.30;;;;;;;8.17;88.19;100393.34;5069989;28;20119;-22
2022/01/03 02:23:20;;;;;;;78.05;23.10;;;;;;;8.31;87.72;100405.69;5070261;28;20051;-22
2022/01/03 02:25:46;;;;;;;72.13;20.20;;;;;;;8.37;86.57;100398.78;5051803;28;20032;-22
2022/01/03 02:28:11;;;;;;;52.75;20.90;;;;;;;7.99;87.25;100400.00;5069798;28;20586;-22
2022/01/03 02:30:37;;;;;;;52.72;20.05;;;;;;;7.79;88.84;100394.53;5070135;28;20060;-22
2022/01/03 02:33:03;;;;;;;66.32;22.77;;;;;;;8.27;86.11;100393.81;5069788;28;20043;-21
2022/01/03 02:35:29;;;;;;;60.35;22.02;;;;;;;8.38;85.89;100403.91;5069605;28;20032;-22
2022/01/03 02:37:54;;;;;;;50.63;20.77;;;;;;;8.54;84.57;100396.66;5051818;28;20056;-21
2022/01/03 02:40:21;;;;;;;52.70;21.33;;;;;;;8.38;85.02;100382.66;5051647;28;20095;-22
2022/01/03 02:42:47;;;;;;;55.13;19.92;;;;;;;7.88;87.42;100375.81;5069607;28;20024;-22
2022/01/03 02:45:14;;;;;;;61.50;21.58;;;;;;;7.55;89.50;100366.56;5069486;28;20391;-22
2022/01/03 02:47:40;;;;;;;50.10;19.90;;;;;;;7.36;90.78;100364.56;5069258;28;20059;-21
2022/01/03 02:50:07;;;;;;;56.28;20.05;;;;;;;7.38;90.69;100371.31;5069541;28;20028;-21
2022/01/03 02:52:33;;;;;;;57.67;19.55;;;;;;;7.43;90.55;100371.56;5069513;28;20025;-22
2022/01/03 02:54:59;;;;;;;73.60;19.65;;;;;;;7.61;90.11;100376.41;5069352;28;20543;-22
2022/01/03 02:57:24;;;;;;;46.13;17.90;;;;;;;7.84;88.58;100370.06;5068924;28;20029;-22
2022/01/03 02:59:57;;;;;;;48.90;18.25;;;;;;;7.54;88.95;100364.09;5051334;28;20031;-22
2022/01/03 03:02:23;;;;;;;49.53;17.60;;;;;;;7.24;90.54;100370.38;5069443;28;20432;-22
2022/01/03 03:04:53;;;;;;;47.55;18.80;;;;;;;7.01;91.17;100351.19;5069378;28;20085;-22
2022/01/03 03:07:19;;;;;;;45.58;18.17;;;;;;;7.48;90.06;100372.81;5069054;28;20135;-22
2022/01/03 03:09:45;;;;;;;56.28;17.73;;;;;;;7.65;88.70;100371.56;5068909;28;20101;-21
2022/01/03 03:12:10;;;;;;;52.70;16.80;;;;;;;7.84;87.93;100383.31;5069356;28;20438;-22
2022/01/03 03:14:38;;;;;;;47.08;17.35;;;;;;;7.85;87.51;100377.03;5068719;28;20021;-22
2022/01/03 03:17:04;;;;;;;48.58;16.90;;;;;;;7.84;86.96;100365.56;5068854;28;20381;-21
2022/01/03 03:19:29;;;;;;;42.90;18.27;;;;;;;7.59;88.32;100369.66;5068528;28;20036;-22
2022/01/03 03:21:55;;;;;;;41.45;17.67;;;;;;;7.69;87.98;100364.03;5068845;28;20045;-22
2022/01/03 03:24:20;;;;;;;47.85;18.55;;;;;;;7.71;87.82;100372.63;5068780;28;20028;-22
2022/01/03 03:26:46;;;;;;;48.03;17.02;;;;;;;8.03;86.73;100373.88;5050681;28;20043;-21
2022/01/03 03:29:12;;;;;;;44.83;18.67;;;;;;;7.20;88.88;100345.25;5068906;28;20047;-22
2022/01/03 03:31:37;;;;;;;54.50;18.00;;;;;;;7.45;88.77;100371.38;5068587;28;20044;-21
2022/01/03 03:34:02;;;;;;;56.40;19.42;;;;;;;7.23;89.67;100368.75;5050573;28;20139;-21
2022/01/03 03:36:28;;;;;;;54.50;18.60;;;;;;;7.04;91.03;100359.56;5050509;28;20032;-21
2022/01/03 03:38:53;;;;;;;58.63;19.75;;;;;;;6.99;91.51;100343.41;5050344;28;20032;-21
2022/01/03 03:41:19;;;;;;;51.13;18.50;;;;;;;7.36;89.68;100362.72;5068595;28;20087;-22
2022/01/03 03:43:44;;;;;;;47.67;17.30;;;;;;;7.11;89.46;100337.59;5068489;28;20798;-22
2022/01/03 03:46:10;;;;;;;42.17;17.05;;;;;;;7.02;90.88;100360.75;5068313;28;20032;-21
2022/01/03 03:48:36;;;;;;;41.92;16.42;;;;;;;6.93;90.92;100361.91;5068340;28;20039;-22
2022/01/03 03:51:01;;;;;;;43.75;16.00;;;;;;;7.15;90.66;100354.75;5068300;28;20026;-22
2022/01/03 03:53:27;;;;;;;47.38;18.13;;;;;;;7.29;90.50;100356.53;5068139;28;20093;-22
2022/01/03 03:55:52;;;;;;;41.03;15.77;;;;;;;7.40;89.09;100340.13;5068083;28;20035;-22
2022/01/03 03:58:18;;;;;;;52.88;17.83;;;;;;;7.83;87.35;100339.22;5050506;28;20117;-22
2022/01/03 04:00:44;;;;;;;40.25;18.17;;;;;;;7.74;86.63;100316.47;5067925;28;20065;-21
2022/01/03 04:03:09;;;;;;;44.08;17.95;;;;;;;7.78;86.43;100318.53;5068035;28;20040;-22
2022/01/03 04:05:34;;;;;;;50.67;19.05;;;;;;;7.71;87.20;100332.81;5068121;28;20049;-22
2022/01/03 04:08:00;;;;;;;41.25;16.63;;;;;;;7.89;86.21;100351.72;5067976;28;20036;-21
2022/01/03 04:10:25;;;;;;;39.63;16.45;;;;;;;7.97;85.61;100348.91;5067730;28;20031;-22
2022/01/03 04:12:51;;;;;;;39.92;15.77;;;;;;;8.08;84.62;100334.25;5067975;28;20032;-22
2022/01/03 04:15:16;;;;;;;42.67;17.73;;;;;;;8.16;84.28;100341.25;5049769;28;20515;-22
2022/01/03 04:17:42;;;;;;;40.17;16.88;;;;;;;7.87;84.39;100316.56;5067756;28;20075;-21
2022/01/03 04:20:08;;;;;;;41.97;16.70;;;;;;;7.58;86.30;100315.75;5067542;28;20025;-22
2022/01/03 04:22:34;;;;;;;38.90;16.92;;;;;;;7.30;87.39;100293.72;5067664;28;20078;-19
2022/01/03 04:24:59;;;;;;;40.40;15.65;;;;;;;7.68;86.99;100322.56;5067326;28;20058;-19
2022/01/03 04:27:25;;;;;;;39.15;15.98;;;;;;;7.95;85.44;100329.69;5067415;28;20032;-19
2022/01/03 04:29:50;;;;;;;41.92;17.27;;;;;;;7.83;84.99;100302.84;5067455;28;20055;-19
2022/01/03 04:32:16;;;;;;;38.67;16.02;;;;;;;7.26;87.58;100316.31;5067614;28;20040;-19
2022/01/03 04:34:41;;;;;;;37.40;16.20;;;;;;;7.19;88.73;100325.03;5067770;28;20032;-19
2022/01/03 04:37:06;;;;;;;37.90;15.80;;;;;;;7.09;88.52;100308.63;5067469;28;20032;-19
2022/01/03 04:39:32;;;;;;;44.55;15.68;;;;;;;6.92;88.88;100307.22;5049363;28;20029;-19
2022/01/03 04:41:57;;;;;;;35.13;13.75;;;;;;;6.39;90.32;100302.97;5067520;28;20039;-19
2022/01/03 04:44:23;;;;;;;29.98;13.80;;;;;;;5.91;93.53;100302.53;5049662;28;20480;-19
2022/01/03 04:46:48;;;;;;;32.85;14.18;;;;;;;6.15;92.24;100308.56;5067551;28;20033;-19
2022/01/03 04:49:14;;;;;;;34.92;14.60;;;;;;;6.55;91.41;100317.84;5067587;28;20017;-19
2022/01/03 04:51:39;;;;;;;34.90;15.40;;;;;;;6.63;88.60;100316.91;5049479;28;20571;-19
2022/01/03 04:54:05;;;;;;;37.60;15.15;;;;;;;6.32;89.14;100296.78;5067789;28;20028;-19
2022/01/03 04:56:30;;;;;;;32.50;14.52;;;;;;;6.47;88.61;100330.38;5067419;28;20032;-19
2022/01/03 04:58:56;;;;;;;26.75;12.65;;;;;;;6.75;87.28;100317.25;5049558;28;20040;-19
2022/01/03 05:01:22;;;;;;;32.85;12.88;;;;;;;6.99;85.56;100308.13;5067495;28;20032;-19
2022/01/03 05:03:48;;;;;;;35.42;14.23;;;;;;;6.77;85.41;100313.41;5067367;28;20054;-19
2022/01/03 05:06:13;;;;;;;34.33;13.93;;;;;;;6.61;85.90;100314.44;5067376;28;20040;-19
2022/01/03 05:08:41;;;;;;;32.03;13.20;;;;;;;6.32;88.49;100317.16;5067235;28;20028;-19
2022/01/03 05:11:06;;;;;;;36.13;15.13;;;;;;;6.76;86.76;100314.44;5067640;28;20054;-19
2022/01/03 05:13:32;;;;;;;33.72;12.30;;;;;;;6.62;86.42;100288.78;5067087;28;20500;-19
2022/01/03 05:15:58;;;;;;;32.15;12.63;;;;;;;6.35;87.48;100309.66;5067481;28;20480;-19
2022/01/03 05:18:24;;;;;;;30.23;12.48;;;;;;;6.01;88.66;100279.28;5049268;28;20507;-20
2022/01/03 05:20:49;;;;;;;30.92;12.05;;;;;;;6.64;87.42;100302.66;5067242;28;20029;-19
2022/01/03 05:23:15;;;;;;;28.13;11.90;;;;;;;6.35;87.15;100301.69;5067139;28;20029;-19
2022/01/03 05:25:40;;;;;;;35.40;14.48;;;;;;;6.42;86.93;100307.09;5066959;28;20040;-19
2022/01/03 05:28:05;;;;;;;41.60;18.13;;;;;;;6.44;87.29;100305.91;5049195;28;20028;-19
2022/01/03 05:30:31;;;;;;;38.42;15.60;;;;;;;6.47;86.76;100310.00;5067354;28;20063;-20
2022/01/03 05:32:56;;;;;;;48.47;21.15;;;;;;;6.58;86.53;100311.38;5067446;28;20898;-19
2022/01/03 05:35:22;;;;;;;73.55;34.70;;;;;;;6.61;85.74;100305.69;5067110;28;20484;-20
2022/01/03 05:37:47;;;;;;;100.55;42.38;;;;;;;6.68;86.05;100306.59;5069568;28;20040;-21
2022/01/03 05:40:13;;;;;;;67.82;34.35;;;;;;;6.61;86.48;100310.97;5070871;28;20025;-19
2022/01/03 05:42:40;;;;;;;70.85;36.47;;;;;;;6.66;86.39;100308.59;5052630;28;20488;-19
2022/01/03 05:45:06;;;;;;;37.97;16.40;;;;;;;6.67;86.04;100304.13;5070902;28;20025;-19
2022/01/03 05:47:32;;;;;;;46.83;22.55;;;;;;;6.45;86.02;100290.81;5070595;28;20036;-19
2022/01/03 05:49:57;;;;;;;35.13;17.25;;;;;;;6.63;86.87;100296.53;5052792;28;20035;-19
2022/01/03 05:52:23;;;;;;;40.92;19.10;;;;;;;6.58;87.05;100300.78;5070638;28;20496;-19
2022/01/03 05:54:48;;;;;;;43.83;19.58;;;;;;;6.39;87.51;100312.75;5070850;28;20180;-19
2022/01/03 05:57:14;;;;;;;40.95;19.77;;;;;;;6.65;87.18;100301.66;5070606;28;20024;-19
2022/01/03 05:59:39;;;;;;;43.10;19.70;;;;;;;6.42;87.22;100305.25;5070272;28;20020;-19
2022/01/03 06:02:05;;;;;;;45.03;20.90;;;;;;;6.07;87.97;100282.19;5070705;28;20040;-19
2022/01/03 06:04:52;;;;;;;48.80;24.50;;;;;;;6.16;88.44;100270.50;5070536;28;20106;-19
2022/01/03 06:07:18;;;;;;;42.33;19.27;;;;;;;6.22;87.69;100285.66;5070513;28;20035;-19
2022/01/03 06:09:43;;;;;;;47.22;22.05;;;;;;;6.33;87.67;100297.59;5069917;28;20037;-20
2022/01/03 06:12:09;;;;;;;54.08;22.60;;;;;;;6.38;87.42;100293.41;5070474;28;20033;-19
2022/01/03 06:14:36;;;;;;;47.72;20.42;;;;;;;6.12;87.84;100271.88;5070265;28;20172;-19
2022/01/03 06:17:01;;;;;;;47.47;20.30;;;;;;;5.96;89.23;100291.44;5070017;28;20109;-19
2022/01/03 06:19:27;;;;;;;42.55;18.23;;;;;;;5.94;89.76;100296.06;5069727;28;20860;-19
2022/01/03 06:21:52;;;;;;;48.65;15.55;;;;;;;5.70;89.73;100287.38;5070017;28;20492;-19
2022/01/03 06:24:18;;;;;;;50.10;17.55;;;;;;;5.64;90.64;100281.00;5069786;28;20051;-19
2022/01/03 06:26:44;;;;;;;49.35;18.83;;;;;;;5.73;90.82;100267.69;5070068;28;20040;-20
2022/01/03 06:29:10;;;;;;;55.33;20.38;;;;;;;6.21;89.23;100276.06;5069793;28;20037;-22
2022/01/03 06:31:36;;;;;;;50.90;17.98;;;;;;;5.81;89.92;100267.59;5069675;28;20032;-22
2022/01/03 06:34:01;;;;;;;47.65;20.38;;;;;;;5.85;90.10;100276.81;5051715;28;20467;-22
2022/01/03 06:36:27;;;;;;;69.00;23.42;;;;;;;6.54;88.80;100295.00;5069892;28;20033;-22
2022/01/03 06:38:53;;;;;;;63.22;21.30;;;;;;;6.70;86.81;100296.63;5069663;28;20047;-22
2022/01/03 06:41:18;;;;;;;60.95;22.02;;;;;;;6.40;87.66;100293.22;5069891;28;20020;-22
2022/01/03 06:43:44;;;;;;;50.78;20.05;;;;;;;6.48;88.77;100295.75;5069620;28;20064;-22
2022/01/03 06:46:09;;;;;;;61.85;23.48;;;;;;;6.19;88.70;100286.03;5069603;28;20055;-22
2022/01/03 06:48:35;;;;;;;51.60;20.00;;;;;;;6.09;89.14;100285.47;5068811;28;20111;-23
2022/01/03 06:51:00;;;;;;;50.53;17.92;;;;;;;6.31;89.65;100289.84;5069731;28;20028;-22
2022/01/03 06:53:25;;;;;;;43.00;15.70;;;;;;;6.76;87.34;100293.22;5069382;28;20500;-22
2022/01/03 06:55:51;;;;;;;49.80;17.73;;;;;;;6.63;88.71;100288.56;5069788;28;20036;-22
2022/01/03 06:58:16;;;;;;;45.33;17.60;;;;;;;6.74;87.69;100302.34;5051392;28;20025;-22
2022/01/03 07:00:42;;;;;;;50.70;17.40;;;;;;;6.76;87.78;100301.16;5069400;28;20054;-22
2022/01/03 07:03:07;;;;;;;49.80;16.98;;;;;;;7.18;85.44;100290.75;5069169;28;20036;-22
2022/01/03 07:05:33;;;;;;;33.63;13.80;;;;;;;6.96;85.58;100276.66;5069115;28;20416;-22
2022/01/03 07:07:59;;;;;;;50.97;17.20;;;;;;;6.84;85.78;100274.53;5069173;28;20032;-22
2022/01/03 07:10:25;;;;;;;32.08;14.07;;;;;;;6.48;87.71;100269.25;5069114;28;20032;-22
2022/01/03 07:12:52;;;;;;;41.00;14.07;;;;;;;6.30;87.38;100271.50;5069366;28;20040;-21
2022/01/03 07:20:46;;;;;;;31.65;15.32;;;;;;;6.07;87.61;100290.13;5069110;28;20922;-22
2022/01/03 07:23:12;;;;;;;42.10;17.35;;;;;;;6.12;88.48;100277.19;5069164;28;20028;-22
2022/01/03 07:25:38;;;;;;;44.58;19.73;;;;;;;6.47;87.22;100293.28;5050979;28;20469;-22
2022/01/03 07:28:03;;;;;;;29.63;12.25;;;;;;;6.24;88.26;100295.06;5068667;28;20126;-22
2022/01/03 07:30:29;;;;;;;36.38;13.00;;;;;;;6.48;87.63;100286.97;5047270;28;20080;-22
2022/01/03 07:32:54;;;;;;;48.05;17.77;;;;;;;6.91;85.55;100305.59;5048813;28;20033;-22
2022/01/03 07:35:20;;;;;;;32.65;14.50;;;;;;;7.14;83.86;100300.09;5048730;28;20067;-22
2022/01/03 07:37:45;;;;;;;35.42;15.13;;;;;;;7.06;84.28;100302.88;5048876;28;20040;-22
2022/01/03 07:40:11;;;;;;;32.15;14.93;;;;;;;6.86;85.61;100315.94;5047344;28;20485;-22
2022/01/03 07:42:37;;;;;;;32.38;15.25;;;;;;;7.23;83.96;100297.13;5048781;28;20025;-22
2022/01/03 07:45:03;;;;;;;26.40;14.00;;;;;;;7.08;83.14;100301.66;5048226;28;20041;-22
2022/01/03 07:47:28;;;;;;;38.40;13.52;;;;;;;7.21;84.04;100291.19;5048777;28;20040;-21
2022/01/03 07:49:53;;;;;;;23.00;12.60;;;;;;;7.24;83.44;100285.50;5048701;28;20036;-22
2022/01/03 07:52:19;;;;;;;32.22;18.17;;;;;;;7.21;83.10;100285.88;5048462;28;20091;-22
2022/01/03 07:54:45;;;;;;;34.47;15.10;;;;;;;7.23;84.62;100289.16;5048486;28;20041;-22
2022/01/03 07:57:11;;;;;;;31.73;14.82;;;;;;;7.11;85.00;100297.81;5047063;28;20104;-22
2022/01/03 07:59:36;;;;;;;27.77;14.10;;;;;;;7.11;84.92;100303.13;5047272;28;20032;-22
2022/01/03 08:02:02;;;;;;;32.47;13.45;;;;;;;6.97;85.89;100307.50;5047718;28;20033;-22
2022/01/03 08:04:28;;;;;;;34.78;14.38;;;;;;;7.08;86.37;100296.38;5048035;28;20550;-22
2022/01/03 08:06:53;;;;;;;34.13;15.07;;;;;;;7.36;85.22;100277.03;5048198;28;20468;-22
2022/01/03 08:09:19;;;;;;;35.10;13.60;;;;;;;7.19;84.90;100285.25;5048279;28;20033;-21
2022/01/03 08:11:44;;;;;;;32.58;14.35;;;;;;;7.21;85.25;100293.00;5048258;28;20076;-21
2022/01/03 08:14:10;;;;;;;38.40;16.30;;;;;;;6.58;86.97;100279.56;5048123;28;20037;-21
2022/01/03 08:16:35;;;;;;;43.15;15.50;;;;;;;7.03;86.80;100282.88;5046279;28;20032;-22
2022/01/03 08:19:00;;;;;;;39.80;14.48;;;;;;;7.19;85.26;100287.91;5048016;28;20560;-22
2022/01/03 08:21:26;;;;;;;40.55;16.75;;;;;;;7.06;85.92;100282.47;5047688;28;20033;-21
2022/01/03 08:23:51;;;;;;;45.03;15.88;;;;;;;7.04;86.36;100268.59;5046660;28;20516;-23
2022/01/03 08:26:17;;;;;;;35.58;13.48;;;;;;;6.86;85.19;100281.47;5047983;28;20021;-22
2022/01/03 08:28:43;;;;;;;40.60;14.98;;;;;;;7.03;85.40;100261.66;5047720;28;20037;-22
2022/01/03 08:31:08;;;;;;;40.28;16.05;;;;;;;7.03;85.92;100278.38;5064666;28;20050;-22
2022/01/03 08:33:34;;;;;;;43.10;15.40;;;;;;;6.75;86.71;100266.91;5067145;28;20029;-21
2022/01/03 08:36:00;;;;;;;44.30;15.73;;;;;;;7.05;85.95;100259.63;5067725;28;20033;-22
2022/01/03 08:38:25;;;;;;;36.92;15.32;;;;;;;7.11;84.78;100256.22;5067661;28;20064;-22
2022/01/03 08:40:51;;;;;;;38.95;14.60;;;;;;;6.68;85.81;100240.34;5049606;28;20054;-22
2022/01/03 08:43:17;;;;;;;37.28;14.38;;;;;;;6.32;88.91;100235.88;5049696;28;20029;-22
2022/01/03 08:45:42;;;;;;;33.70;14.10;;;;;;;6.55;88.69;100242.84;5067764;28;20040;-21
2022/01/03 08:48:08;;;;;;;30.67;14.32;;;;;;;6.59;88.40;100246.75;5067895;28;20484;-22
2022/01/03 08:50:34;;;;;;;31.42;13.73;;;;;;;6.39;88.18;100255.28;5067692;28;20071;-22
2022/01/03 08:52:59;;;;;;;32.15;13.77;;;;;;;6.18;89.88;100236.72;5067560;28;20090;-22
2022/01/03 08:55:24;;;;;;;38.35;17.58;;;;;;;6.91;87.59;100241.97;5049239;28;20032;-22
2022/01/03 08:57:51;;;;;;;31.75;15.73;;;;;;;6.76;86.61;100239.38;5067512;28;20032;-22
2022/01/03 09:00:17;;;;;;;34.67;16.75;;;;;;;6.81;87.41;100232.50;5067502;28;20033;-22
2022/01/03 09:02:42;;;;;;;34.05;13.77;;;;;;;6.96;87.80;100231.59;5049461;28;20036;-24
2022/01/03 09:05:08;;;;;;;32.85;14.43;;;;;;;7.17;85.60;100213.00;5049756;28;20060;-23
2022/01/03 09:07:33;;;;;;;33.53;14.45;;;;;;;7.08;87.21;100206.19;5067181;28;20031;-22
2022/01/03 09:09:59;;;;;;;33.25;15.07;;;;;;;7.40;85.86;100201.34;5067590;28;20040;-22
2022/01/03 09:12:24;;;;;;;30.88;14.50;;;;;;;7.45;84.92;100159.91;5069351;28;20058;-22
2022/01/03 09:14:50;;;;;;;30.60;14.43;;;;;;;7.58;82.89;100217.56;5071244;28;20029;-22
2022/01/03 09:17:15;;;;;;;34.38;16.67;;;;;;;7.84;81.17;100210.75;5071117;28;20031;-22
2022/01/03 09:19:41;;;;;;;32.22;16.65;;;;;;;7.97;80.63;100226.75;5071202;28;20032;-21
2022/01/03 09:24:55;;;;;;;33.58;14.98;;;;;;;7.61;83.25;100211.03;5071030;28;20040;-22
2022/01/03 09:30:05;;;;;;;33.65;16.10;;;;;;;7.58;82.97;100196.34;5071290;28;20095;-21
2022/01/03 09:32:31;;;;;;;31.60;14.55;;;;;;;7.80;81.92;100206.84;5071231;28;20115;-21
2022/01/03 09:34:57;;;;;;;28.80;14.52;;;;;;;7.69;82.21;100191.47;5070926;28;20123;-22
2022/01/03 09:37:23;;;;;;;32.45;15.63;;;;;;;8.21;80.06;100187.38;5052620;28;20028;-28
2022/01/03 09:39:49;;;;;;;31.42;14.57;;;;;;;8.21;79.71;100200.66;5071029;28;20068;-23
2022/01/03 09:42:17;;;;;;;35.05;17.58;;;;;;;7.91;79.89;100174.44;5070809;28;20032;-22
2022/01/03 09:44:42;;;;;;;36.78;16.98;;;;;;;7.98;80.61;100164.63;5053358;28;20080;-23
2022/01/03 09:47:08;;;;;;;34.90;17.73;;;;;;;8.12;79.74;100156.72;5071292;28;20984;-21
2022/01/03 09:49:35;;;;;;;35.47;17.73;;;;;;;7.97;80.71;100163.00;5052584;28;20043;-22
2022/01/03 09:52:01;;;;;;;40.28;18.63;;;;;;;8.26;80.21;100139.78;5070370;28;20407;-21
2022/01/03 09:54:27;;;;;;;41.72;19.40;;;;;;;8.39;78.02;100138.97;5070791;28;20043;-22
2022/01/03 09:56:52;;;;;;;41.47;20.60;;;;;;;8.57;77.28;100135.75;5035864;28;20028;-22
2022/01/03 09:59:18;;;;;;;51.08;30.30;;;;;;;8.60;77.40;100140.66;5052718;28;20032;-22
2022/01/03 10:01:44;;;;;;;48.53;25.67;;;;;;;8.30;78.57;100114.44;5070555;28;20123;-22
2022/01/03 10:04:11;;;;;;;44.15;20.83;;;;;;;8.53;78.32;100123.91;5052459;28;20028;-22
2022/01/03 10:06:37;;;;;;;55.63;29.02;;;;;;;8.41;79.41;100105.88;5070142;28;20090;-22
2022/01/03 10:09:02;;;;;;;44.42;21.10;;;;;;;8.53;79.04;100115.94;5052791;28;20040;-22
2022/01/03 10:11:28;;;;;;;40.38;20.45;;;;;;;8.34;79.00;100121.00;5069837;28;20040;-22
2022/01/03 10:13:53;;;;;;;39.38;20.02;;;;;;;8.32;79.70;100112.41;5070455;28;20033;-21
2022/01/03 10:16:19;;;;;;;36.85;18.55;;;;;;;8.48;77.35;100083.81;5070457;28;20036;-19
2022/01/03 10:18:47;;;;;;;49.03;30.45;;;;;;;8.84;76.63;100102.81;5070232;28;20033;-19
2022/01/03 10:21:16;;;;;;;39.13;19.95;;;;;;;9.55;74.91;100095.88;5069941;28;20042;-19
2022/01/03 10:23:57;;;;;;;37.53;20.88;;;;;;;9.92;72.83;100092.63;5034298;28;20439;-20
2022/01/03 10:26:23;;;;;;;41.35;21.20;;;;;;;9.98;73.13;100076.59;5070025;28;20939;-19
2022/01/03 10:28:49;;;;;;;32.95;18.38;;;;;;;9.91;71.66;100040.38;5070210;28;20044;-20
2022/01/03 10:31:21;;;;;;;33.88;18.98;;;;;;;9.53;73.96;100054.53;5069941;28;20060;-20
2022/01/03 10:33:47;;;;;;;35.67;18.27;;;;;;;9.17;76.88;100054.03;5069604;28;20028;-19
2022/01/03 10:36:34;;;;;;;40.20;19.75;;;;;;;9.11;75.61;100030.94;5069849;28;20119;-19
2022/01/03 10:39:14;;;;;;;36.20;18.92;;;;;;;9.94;73.42;100030.13;5069659;28;20033;-19
2022/01/03 10:41:39;;;;;;;38.42;20.58;;;;;;;10.82;72.47;100039.84;5051617;28;20037;-20
2022/01/03 10:44:05;;;;;;;51.97;40.80;;;;;;;11.64;66.65;100039.50;5069977;28;20377;-20
2022/01/03 10:46:32;;;;;;;32.42;17.38;;;;;;;12.06;64.22;100034.19;5069563;28;20032;-20
2022/01/03 10:49:16;;;;;;;28.48;15.57;;;;;;;12.57;62.74;100047.19;5069729;28;20028;-19
2022/01/03 10:51:43;;;;;;;28.70;15.52;;;;;;;12.48;61.57;100017.25;5069356;28;20492;-20
2022/01/03 10:54:11;;;;;;;32.88;22.55;;;;;;;12.85;62.29;100044.59;5069465;28;20032;-19
2022/01/03 10:56:40;;;;;;;24.25;15.13;;;;;;;13.33;59.74;100028.47;5069535;28;20032;-19
2022/01/03 10:59:11;;;;;;;26.73;15.52;;;;;;;13.79;60.68;100034.69;5069439;28;20040;-20
2022/01/03 11:01:37;;;;;;;30.45;17.15;;;;;;;13.50;60.95;100007.91;5068957;28;20028;-19
2022/01/03 11:04:03;;;;;;;29.40;17.35;;;;;;;13.49;60.68;100014.31;5069301;28;20578;-20
2022/01/03 11:11:47;;;;;;;32.95;17.75;;;;;;;12.21;64.87;99992.84;5069046;28;20157;-19
2022/01/03 11:14:33;;;;;;;29.38;17.42;;;;;;;12.82;64.53;99994.22;5069166;28;20523;-19
2022/01/03 11:16:59;;;;;;;28.33;16.13;;;;;;;13.13;62.23;99996.72;5068807;28;20028;-19
2022/01/03 11:19:36;;;;;;;29.27;16.08;;;;;;;13.34;62.54;99968.50;5068721;28;20571;-19
2022/01/03 11:22:02;;;;;;;28.52;16.83;;;;;;;12.88;64.55;99946.97;5069118;28;20046;-19
2022/01/03 11:24:28;;;;;;;25.17;16.25;;;;;;;13.52;60.94;99957.56;5068691;28;20036;-20
2022/01/03 11:26:54;;;;;;;26.15;15.52;;;;;;;13.78;59.35;99925.88;5069206;28;20037;-19
2022/01/03 11:29:20;;;;;;;26.70;16.77;;;;;;;14.11;56.75;99938.44;5051517;28;20047;-19
2022/01/03 11:31:49;;;;;;;31.15;18.67;;;;;;;14.25;59.10;99929.00;5050666;28;20029;-19
2022/01/03 11:34:14;;;;;;;35.40;21.75;;;;;;;15.08;55.40;99952.38;5050538;28;20139;-19